createdAt,value
2016-08-04T00:00:48.086Z,1004.44
2016-08-04T00:01:48.394Z,1004.45
2016-08-04T00:02:48.097Z,1004.43
2016-08-04T00:03:48.103Z,1004.4
2016-08-04T00:04:48.108Z,1004.4
2016-08-04T00:05:48.114Z,1004.39
2016-08-04T00:06:48.118Z,1004.41
2016-08-04T00:07:48.124Z,1004.38
2016-08-04T00:08:48.128Z,1004.38
2016-08-04T00:09:48.134Z,1004.37
2016-08-04T00:10:48.146Z,1004.46
2016-08-04T00:11:48.147Z,1004.42
2016-08-04T00:12:49.151Z,1004.45
2016-08-04T00:13:48.155Z,1004.44
2016-08-04T00:14:48.159Z,1004.43
2016-08-04T00:15:48.166Z,1004.46
2016-08-04T00:16:48.171Z,1004.47
2016-08-04T00:17:48.179Z,1004.48
2016-08-04T00:18:48.183Z,1004.47
2016-08-04T00:20:48.194Z,1004.5
2016-08-04T00:21:48.199Z,1004.55
2016-08-04T00:22:48.204Z,1004.52
2016-08-04T00:23:48.207Z,1004.5
2016-08-04T00:24:48.216Z,1004.51
2016-08-04T00:25:48.220Z,1004.4
2016-08-04T00:26:48.226Z,1004.46
2016-08-04T00:27:48.230Z,1004.45
2016-08-04T00:28:48.236Z,1004.42
2016-08-04T00:29:48.241Z,1004.43
2016-08-04T00:30:48.246Z,1004.45
2016-08-04T00:31:48.250Z,1004.4
2016-08-04T00:32:48.408Z,1004.45
2016-08-04T00:33:48.262Z,1004.38
2016-08-04T00:34:48.267Z,1004.44
2016-08-04T00:35:48.273Z,1004.42
2016-08-04T00:36:48.278Z,1004.42
2016-08-04T00:37:48.283Z,1004.4
2016-08-04T00:38:48.289Z,1004.39
2016-08-04T00:39:48.293Z,1004.33
2016-08-04T00:40:48.302Z,1004.34
2016-08-04T00:41:48.303Z,1004.34
2016-08-04T00:42:48.308Z,1004.38
2016-08-04T00:43:48.965Z,1004.46
2016-08-04T00:44:48.319Z,1004.41
2016-08-04T00:45:48.326Z,1004.41
2016-08-04T00:46:48.330Z,1004.38
2016-08-04T00:47:48.334Z,1004.36
2016-08-04T00:48:48.341Z,1004.39
2016-08-04T00:49:48.346Z,1004.37
2016-08-04T00:50:48.352Z,1004.4
2016-08-04T00:51:48.356Z,1004.38
2016-08-04T00:52:48.360Z,1004.35
2016-08-04T00:53:48.366Z,1004.34
2016-08-04T00:54:49.422Z,1004.32
2016-08-04T00:55:48.376Z,1004.38
2016-08-04T00:56:48.383Z,1004.38
2016-08-04T00:57:48.387Z,1004.42
2016-08-04T00:58:48.394Z,1004.36
2016-08-04T00:59:48.397Z,1004.41
2016-08-04T01:00:48.402Z,1004.34
2016-08-04T01:01:48.408Z,1004.33
2016-08-04T01:02:48.411Z,1004.38
2016-08-04T01:03:48.416Z,1004.34
2016-08-04T01:04:48.422Z,1004.4
2016-08-04T01:05:49.978Z,1004.3
2016-08-04T01:06:48.431Z,1004.29
2016-08-04T01:07:48.436Z,1004.33
2016-08-04T01:08:48.442Z,1004.28
2016-08-04T01:09:48.445Z,1004.32
2016-08-04T01:10:48.451Z,1004.34
2016-08-04T01:11:48.457Z,1004.35
2016-08-04T01:12:48.463Z,1004.31
2016-08-04T01:13:48.466Z,1004.34
2016-08-04T01:14:48.472Z,1004.33
2016-08-04T01:15:48.475Z,1004.33
2016-08-04T01:16:48.480Z,1004.36
2016-08-04T01:17:48.486Z,1004.32
2016-08-04T01:18:48.490Z,1004.3
2016-08-04T01:20:48.501Z,1004.33
2016-08-04T01:21:48.503Z,1004.33
2016-08-04T01:22:48.510Z,1004.36
2016-08-04T01:23:48.516Z,1004.39
2016-08-04T01:24:48.519Z,1004.41
2016-08-04T01:25:48.525Z,1004.35
2016-08-04T01:26:48.529Z,1004.35
2016-08-04T01:27:48.533Z,1004.32
2016-08-04T01:28:48.538Z,1004.36
2016-08-04T01:29:48.545Z,1004.39
2016-08-04T01:30:48.551Z,1004.4
2016-08-04T01:31:48.567Z,1004.36
2016-08-04T01:32:48.559Z,1004.37
2016-08-04T01:33:48.563Z,1004.39
2016-08-04T01:35:48.580Z,1004.43
2016-08-04T01:36:48.581Z,1004.39
2016-08-04T01:37:48.584Z,1004.38
2016-08-04T01:38:48.589Z,1004.38
2016-08-04T01:39:48.593Z,1004.37
2016-08-04T01:40:48.598Z,1004.37
2016-08-04T01:41:48.604Z,1004.46
2016-08-04T01:42:48.608Z,1004.43
2016-08-04T01:43:48.613Z,1004.44
2016-08-04T01:44:48.616Z,1004.46
2016-08-04T01:45:48.624Z,1004.49
2016-08-04T01:46:48.727Z,1004.54
2016-08-04T01:47:48.633Z,1004.51
2016-08-04T01:48:48.637Z,1004.44
2016-08-04T01:49:48.642Z,1004.39
2016-08-04T01:50:48.747Z,1004.43
2016-08-04T01:51:49.102Z,1004.39
2016-08-04T01:52:48.658Z,1004.37
2016-08-04T01:53:48.661Z,1004.33
2016-08-04T01:54:48.667Z,1004.32
2016-08-04T01:55:48.670Z,1004.29
2016-08-04T01:56:48.677Z,1004.32
2016-08-04T01:57:48.681Z,1004.25
2016-08-04T01:58:48.685Z,1004.32
2016-08-04T01:59:48.691Z,1004.28
2016-08-04T02:00:48.693Z,1004.29
2016-08-04T02:01:48.699Z,1004.32
2016-08-04T02:02:49.806Z,1004.29
2016-08-04T02:03:48.710Z,1004.28
2016-08-04T02:04:48.712Z,1004.26
2016-08-04T02:05:48.724Z,1004.22
2016-08-04T02:06:48.723Z,1004.22
2016-08-04T02:07:48.729Z,1004.24
2016-08-04T02:08:48.733Z,1004.27
2016-08-04T02:09:48.738Z,1004.27
2016-08-04T02:10:48.743Z,1004.23
2016-08-04T02:11:48.746Z,1004.21
2016-08-04T02:12:48.752Z,1004.18
2016-08-04T02:13:48.757Z,1004.22
2016-08-04T02:14:48.762Z,1004.22
2016-08-04T02:15:48.765Z,1004.23
2016-08-04T02:16:48.770Z,1004.16
2016-08-04T02:17:48.775Z,1004.21
2016-08-04T02:18:48.782Z,1004.24
2016-08-04T02:19:48.787Z,1004.22
2016-08-04T02:20:48.792Z,1004.27
2016-08-04T02:21:48.796Z,1004.21
2016-08-04T02:22:49.550Z,1004.2
2016-08-04T02:23:48.804Z,1004.22
2016-08-04T02:24:48.863Z,1004.19
2016-08-04T02:25:48.816Z,1004.23
2016-08-04T02:26:48.821Z,1004.2
2016-08-04T02:27:48.875Z,1004.19
2016-08-04T02:28:48.831Z,1004.21
2016-08-04T02:29:48.836Z,1004.16
2016-08-04T02:30:48.841Z,1004.17
2016-08-04T02:31:48.846Z,1004.21
2016-08-04T02:32:48.850Z,1004.23
2016-08-04T02:33:49.972Z,1004.25
2016-08-04T02:34:48.860Z,1004.28
2016-08-04T02:35:48.866Z,1004.26
2016-08-04T02:36:48.871Z,1004.24
2016-08-04T02:37:48.875Z,1004.21
2016-08-04T02:38:48.882Z,1004.21
2016-08-04T02:39:48.887Z,1004.18
2016-08-04T02:40:48.890Z,1004.2
2016-08-04T02:41:48.895Z,1004.19
2016-08-04T02:42:48.899Z,1004.17
2016-08-04T02:43:48.904Z,1004.18
2016-08-04T02:44:48.909Z,1004.14
2016-08-04T02:45:49.216Z,1004.17
2016-08-04T02:46:48.919Z,1004.17
2016-08-04T02:47:48.923Z,1004.18
2016-08-04T02:48:48.929Z,1004.18
2016-08-04T02:49:48.934Z,1004.21
2016-08-04T02:50:48.940Z,1004.22
2016-08-04T02:51:48.944Z,1004.21
2016-08-04T02:52:48.949Z,1004.17
2016-08-04T02:53:49.153Z,1004.18
2016-08-04T02:54:48.959Z,1004.19
2016-08-04T02:55:48.965Z,1004.2
2016-08-04T02:56:49.969Z,1004.16
2016-08-04T02:57:49.024Z,1004.17
2016-08-04T02:58:48.978Z,1004.21
2016-08-04T02:59:48.983Z,1004.21
2016-08-04T03:00:48.989Z,1004.2
2016-08-04T03:01:48.993Z,1004.2
2016-08-04T03:02:48.996Z,1004.18
2016-08-04T03:03:49.002Z,1004.16
2016-08-04T03:04:49.556Z,1004.18
2016-08-04T03:05:49.011Z,1004.13
2016-08-04T03:06:49.016Z,1004.14
2016-08-04T03:07:49.023Z,1004.14
2016-08-04T03:08:49.027Z,1004.14
2016-08-04T03:09:49.033Z,1004.16
2016-08-04T03:10:49.036Z,1004.16
2016-08-04T03:11:49.041Z,1004.16
2016-08-04T03:12:49.047Z,1004.18
2016-08-04T03:13:49.050Z,1004.2
2016-08-04T03:14:49.057Z,1004.24
2016-08-04T03:15:50.013Z,1004.23
2016-08-04T03:16:49.065Z,1004.2
2016-08-04T03:17:49.071Z,1004.2
2016-08-04T03:18:49.076Z,1004.17
2016-08-04T03:19:49.082Z,1004.18
2016-08-04T03:20:49.086Z,1004.18
2016-08-04T03:21:49.090Z,1004.24
2016-08-04T03:22:49.097Z,1004.18
2016-08-04T03:23:49.102Z,1004.19
2016-08-04T03:24:49.103Z,1004.18
2016-08-04T03:25:49.108Z,1004.19
2016-08-04T03:26:49.114Z,1004.2
2016-08-04T03:27:50.168Z,1004.2
2016-08-04T03:28:49.122Z,1004.19
2016-08-04T03:29:49.128Z,1004.14
2016-08-04T03:30:49.134Z,1004.16
2016-08-04T03:31:49.137Z,1004.14
2016-08-04T03:32:49.143Z,1004.13
2016-08-04T03:33:49.145Z,1004.14
2016-08-04T03:34:49.153Z,1004.16
2016-08-04T03:35:49.155Z,1004.19
2016-08-04T03:36:49.162Z,1004.22
2016-08-04T03:37:49.167Z,1004.21
2016-08-04T03:38:49.171Z,1004.17
2016-08-04T03:39:49.174Z,1004.21
2016-08-04T03:40:49.180Z,1004.24
2016-08-04T03:41:49.184Z,1004.22
2016-08-04T03:42:49.190Z,1004.21
2016-08-04T03:43:49.192Z,1004.18
2016-08-04T03:44:49.205Z,1004.15
2016-08-04T03:45:49.204Z,1004.2
2016-08-04T03:46:49.207Z,1004.19
2016-08-04T03:47:49.214Z,1004.21
2016-08-04T03:48:49.216Z,1004.19
2016-08-04T03:49:49.222Z,1004.21
2016-08-04T03:50:49.226Z,1004.25
2016-08-04T03:51:49.231Z,1004.23
2016-08-04T03:52:49.236Z,1004.27
2016-08-04T03:53:49.242Z,1004.25
2016-08-04T03:54:49.247Z,1004.27
2016-08-04T03:55:49.252Z,1004.26
2016-08-04T03:56:49.256Z,1004.29
2016-08-04T03:57:49.260Z,1004.25
2016-08-04T03:58:49.267Z,1004.29
2016-08-04T03:59:49.269Z,1004.31
2016-08-04T04:00:49.277Z,1004.3
2016-08-04T04:01:49.331Z,1004.31
2016-08-04T04:02:49.287Z,1004.34
2016-08-04T04:03:49.291Z,1004.37
2016-08-04T04:04:49.294Z,1004.35
2016-08-04T04:05:49.300Z,1004.41
2016-08-04T04:06:49.304Z,1004.34
2016-08-04T04:07:49.310Z,1004.36
2016-08-04T04:08:49.315Z,1004.35
2016-08-04T04:09:49.320Z,1004.34
2016-08-04T04:10:49.325Z,1004.35
2016-08-04T04:11:49.329Z,1004.27
2016-08-04T04:12:49.481Z,1004.27
2016-08-04T04:13:49.339Z,1004.25
2016-08-04T04:14:49.345Z,1004.19
2016-08-04T04:15:49.349Z,1004.18
2016-08-04T04:16:49.352Z,1004.14
2016-08-04T04:17:49.357Z,1004.2
2016-08-04T04:18:49.411Z,1004.19
2016-08-04T04:19:49.365Z,1004.26
2016-08-04T04:20:49.370Z,1004.28
2016-08-04T04:21:49.377Z,1004.28
2016-08-04T04:22:49.380Z,1004.26
2016-08-04T04:23:50.184Z,1004.26
2016-08-04T04:24:49.389Z,1004.23
2016-08-04T04:25:49.395Z,1004.27
2016-08-04T04:26:49.399Z,1004.24
2016-08-04T04:27:49.404Z,1004.21
2016-08-04T04:28:49.409Z,1004.15
2016-08-04T04:29:49.412Z,1004.13
2016-08-04T04:30:49.418Z,1004.16
2016-08-04T04:31:49.422Z,1004.1
2016-08-04T04:32:49.428Z,1004.13
2016-08-04T04:33:49.432Z,1004.12
2016-08-04T04:34:50.560Z,1004.13
2016-08-04T04:35:49.442Z,1004.18
2016-08-04T04:36:49.448Z,1004.16
2016-08-04T04:37:49.453Z,1004.19
2016-08-04T04:38:49.458Z,1004.18
2016-08-04T04:39:49.462Z,1004.19
2016-08-04T04:40:49.468Z,1004.15
2016-08-04T04:41:49.472Z,1004.16
2016-08-04T04:42:49.478Z,1004.14
2016-08-04T04:43:49.482Z,1004.15
2016-08-04T04:44:49.489Z,1004.24
2016-08-04T04:45:49.492Z,1004.28
2016-08-04T04:46:49.497Z,1004.21
2016-08-04T04:47:49.604Z,1004.31
2016-08-04T04:48:49.508Z,1004.26
2016-08-04T04:49:49.514Z,1004.29
2016-08-04T04:50:49.517Z,1004.27
2016-08-04T04:51:49.573Z,1004.31
2016-08-04T04:52:49.528Z,1004.3
2016-08-04T04:53:49.532Z,1004.34
2016-08-04T04:55:49.542Z,1004.3
2016-08-04T04:56:49.546Z,1004.28
2016-08-04T04:57:49.552Z,1004.47
2016-08-04T04:58:49.557Z,1004.43
2016-08-04T04:59:49.561Z,1004.37
2016-08-04T05:00:49.566Z,1004.41
2016-08-04T05:01:49.572Z,1004.66
2016-08-04T05:02:49.577Z,1004.61
2016-08-04T05:03:49.582Z,1004.51
2016-08-04T05:04:49.587Z,1004.56
2016-08-04T05:06:49.602Z,1004.53
2016-08-04T05:07:49.607Z,1004.45
2016-08-04T05:08:49.610Z,1004.5
2016-08-04T05:09:49.614Z,1004.4
2016-08-04T05:10:49.619Z,1004.58
2016-08-04T05:11:49.625Z,1004.63
2016-08-04T05:12:49.631Z,1004.51
2016-08-04T05:13:49.637Z,1004.62
2016-08-04T05:14:49.642Z,1004.7
2016-08-04T05:15:49.650Z,1004.66
2016-08-04T05:16:49.654Z,1004.59
2016-08-04T05:17:49.662Z,1004.58
2016-08-04T05:18:49.667Z,1004.69
2016-08-04T05:19:49.673Z,1004.74
2016-08-04T05:21:49.684Z,1004.61
2016-08-04T05:22:49.695Z,1004.55
2016-08-04T05:23:49.695Z,1004.45
2016-08-04T05:24:49.704Z,1004.47
2016-08-04T05:25:49.710Z,1004.53
2016-08-04T05:26:49.766Z,1004.41
2016-08-04T05:27:49.722Z,1004.39
2016-08-04T05:28:49.729Z,1004.46
2016-08-04T05:29:49.734Z,1004.47
2016-08-04T05:30:49.742Z,1004.52
2016-08-04T05:31:49.747Z,1004.5
2016-08-04T05:32:49.752Z,1004.6
2016-08-04T05:33:49.758Z,1004.65
2016-08-04T05:34:49.765Z,1004.57
2016-08-04T05:35:49.776Z,1004.57
2016-08-04T05:36:49.777Z,1004.56
2016-08-04T05:37:49.784Z,1004.56
2016-08-04T05:38:49.789Z,1004.65
2016-08-04T05:39:49.795Z,1004.77
2016-08-04T05:40:49.904Z,1004.78
2016-08-04T05:41:49.805Z,1004.87
2016-08-04T05:42:49.812Z,1004.97
2016-08-04T05:43:49.820Z,1005.23
2016-08-04T05:44:49.824Z,1005.24
2016-08-04T05:45:49.831Z,1005.23
2016-08-04T05:46:49.838Z,1005.19
2016-08-04T05:47:49.842Z,1005.01
2016-08-04T05:48:49.850Z,1004.84
2016-08-04T05:49:49.859Z,1004.79
2016-08-04T05:50:49.862Z,1004.78
2016-08-04T05:51:50.270Z,1004.79
2016-08-04T05:52:49.877Z,1004.9
2016-08-04T05:53:49.883Z,1004.78
2016-08-04T05:54:49.888Z,1004.84
2016-08-04T05:55:49.895Z,1004.83
2016-08-04T05:56:49.901Z,1004.81
2016-08-04T05:57:49.908Z,1004.79
2016-08-04T05:58:49.915Z,1004.69
2016-08-04T05:59:50.120Z,1004.76
2016-08-04T06:00:49.926Z,1004.68
2016-08-04T06:01:49.932Z,1004.75
2016-08-04T06:02:51.046Z,1004.74
2016-08-04T06:03:49.945Z,1004.71
2016-08-04T06:04:49.952Z,1004.71
2016-08-04T06:05:49.957Z,1004.66
2016-08-04T06:06:49.962Z,1004.61
2016-08-04T06:07:49.971Z,1004.66
2016-08-04T06:08:49.975Z,1004.67
2016-08-04T06:09:49.980Z,1004.71
2016-08-04T06:10:49.985Z,1004.7
2016-08-04T06:11:49.992Z,1004.65
2016-08-04T06:12:49.996Z,1004.64
2016-08-04T06:13:50.002Z,1004.62
2016-08-04T06:14:50.008Z,1004.61
2016-08-04T06:15:50.013Z,1004.6
2016-08-04T06:16:50.020Z,1004.65
2016-08-04T06:17:50.024Z,1004.67
2016-08-04T06:18:50.033Z,1004.69
2016-08-04T06:19:50.038Z,1004.77
2016-08-04T06:20:50.042Z,1004.77
2016-08-04T06:21:50.047Z,1004.98
2016-08-04T06:22:50.054Z,1004.98
2016-08-04T06:23:50.058Z,1005.05
2016-08-04T06:24:51.768Z,1004.82
2016-08-04T06:25:50.070Z,1004.86
2016-08-04T06:26:50.077Z,1004.9
2016-08-04T06:27:50.132Z,1004.98
2016-08-04T06:28:50.088Z,1004.9
2016-08-04T06:29:50.093Z,1004.81
2016-08-04T06:30:50.101Z,1004.91
2016-08-04T06:31:50.104Z,1004.85
2016-08-04T06:32:50.109Z,1004.93
2016-08-04T06:33:50.866Z,1004.89
2016-08-04T06:34:50.122Z,1004.91
2016-08-04T06:35:50.177Z,1004.84
2016-08-04T06:36:50.133Z,1004.82
2016-08-04T06:37:50.140Z,1004.79
2016-08-04T06:38:50.143Z,1004.82
2016-08-04T06:39:50.149Z,1004.82
2016-08-04T06:40:50.355Z,1004.87
2016-08-04T06:41:50.161Z,1004.94
2016-08-04T06:42:50.166Z,1004.88
2016-08-04T06:43:50.271Z,1004.9
2016-08-04T06:44:51.228Z,1004.89
2016-08-04T06:45:50.182Z,1004.91
2016-08-04T06:46:50.188Z,1004.92
2016-08-04T06:47:50.192Z,1004.88
2016-08-04T06:48:50.198Z,1004.9
2016-08-04T06:49:50.204Z,1004.97
2016-08-04T06:50:50.209Z,1004.96
2016-08-04T06:51:50.215Z,1004.91
2016-08-04T06:52:50.221Z,1004.92
2016-08-04T06:53:50.227Z,1004.8
2016-08-04T06:55:50.288Z,1004.73
2016-08-04T06:56:50.243Z,1004.72
2016-08-04T06:57:50.249Z,1004.73
2016-08-04T06:58:50.254Z,1004.77
2016-08-04T06:59:50.261Z,1004.79
2016-08-04T07:00:50.264Z,1004.74
2016-08-04T07:01:50.270Z,1004.73
2016-08-04T07:02:50.277Z,1004.72
2016-08-04T07:03:50.283Z,1004.76
2016-08-04T07:04:50.287Z,1004.71
2016-08-04T07:05:50.294Z,1004.73
2016-08-04T07:06:51.251Z,1004.72
2016-08-04T07:07:50.305Z,1004.76
2016-08-04T07:08:50.313Z,1004.76
2016-08-04T07:09:50.318Z,1004.79
2016-08-04T07:10:50.325Z,1004.82
2016-08-04T07:11:50.326Z,1004.9
2016-08-04T07:12:50.332Z,1004.89
2016-08-04T07:13:50.350Z,1004.91
2016-08-04T07:14:50.342Z,1004.98
2016-08-04T07:15:50.348Z,1005.05
2016-08-04T07:16:50.353Z,1005.04
2016-08-04T07:17:50.359Z,1005.11
2016-08-04T07:18:50.364Z,1005.23
2016-08-04T07:19:50.370Z,1005.27
2016-08-04T07:20:50.375Z,1005.28
2016-08-04T07:21:50.385Z,1005.3
2016-08-04T07:22:50.386Z,1005.43
2016-08-04T07:23:50.391Z,1005.36
2016-08-04T07:24:50.397Z,1005.34
2016-08-04T07:25:50.402Z,1005.31
2016-08-04T07:26:50.407Z,1005.34
2016-08-04T07:27:50.414Z,1005.36
2016-08-04T07:28:50.972Z,1005.23
2016-08-04T07:29:50.426Z,1005.3
2016-08-04T07:30:50.431Z,1005.42
2016-08-04T07:31:50.437Z,1005.37
2016-08-04T07:32:51.245Z,1005.34
2016-08-04T07:33:50.964Z,1005.38
2016-08-04T07:34:50.456Z,1005.41
2016-08-04T07:35:50.461Z,1005.41
2016-08-04T07:36:50.466Z,1005.42
2016-08-04T07:37:50.473Z,1005.36
2016-08-04T07:38:50.478Z,1005.42
2016-08-04T07:39:50.484Z,1005.35
2016-08-04T07:40:50.489Z,1005.29
2016-08-04T07:41:50.497Z,1005.3
2016-08-04T07:42:50.502Z,1005.24
2016-08-04T07:43:51.508Z,1005.3
2016-08-04T07:44:50.515Z,1005.3
2016-08-04T07:45:50.520Z,1005.36
2016-08-04T07:46:50.527Z,1005.34
2016-08-04T07:47:50.532Z,1005.38
2016-08-04T07:48:50.538Z,1005.32
2016-08-04T07:49:50.544Z,1005.3
2016-08-04T07:50:50.548Z,1005.32
2016-08-04T07:51:50.558Z,1005.33
2016-08-04T07:52:50.561Z,1005.27
2016-08-04T07:53:50.568Z,1005.32
2016-08-04T07:54:50.573Z,1005.36
2016-08-04T07:55:50.579Z,1005.33
2016-08-04T07:56:50.584Z,1005.33
2016-08-04T07:57:50.590Z,1005.36
2016-08-04T07:58:50.596Z,1005.41
2016-08-04T07:59:50.652Z,1005.29
2016-08-04T08:00:50.609Z,1005.3
2016-08-04T08:01:50.614Z,1005.34
2016-08-04T08:02:50.621Z,1005.34
2016-08-04T08:03:50.626Z,1005.39
2016-08-04T08:04:50.629Z,1005.46
2016-08-04T08:05:51.440Z,1005.43
2016-08-04T08:06:50.644Z,1005.47
2016-08-04T08:07:50.649Z,1005.47
2016-08-04T08:08:50.653Z,1005.43
2016-08-04T08:09:50.659Z,1005.42
2016-08-04T08:10:50.666Z,1005.46
2016-08-04T08:11:50.671Z,1005.43
2016-08-04T08:12:50.678Z,1005.49
2016-08-04T08:13:50.681Z,1005.4
2016-08-04T08:14:50.689Z,1005.45
2016-08-04T08:15:50.695Z,1005.46
2016-08-04T08:16:50.700Z,1005.44
2016-08-04T08:17:50.706Z,1005.5
2016-08-04T08:18:50.712Z,1005.48
2016-08-04T08:19:50.718Z,1005.5
2016-08-04T08:20:50.722Z,1005.4
2016-08-04T08:21:50.727Z,1005.48
2016-08-04T08:22:50.734Z,1005.45
2016-08-04T08:23:50.740Z,1005.45
2016-08-04T08:24:50.744Z,1005.5
2016-08-04T08:25:50.801Z,1005.44
2016-08-04T08:26:50.756Z,1005.36
2016-08-04T08:27:51.663Z,1005.35
2016-08-04T08:28:50.769Z,1005.37
2016-08-04T08:29:50.774Z,1005.37
2016-08-04T08:30:50.831Z,1005.36
2016-08-04T08:31:50.786Z,1005.33
2016-08-04T08:32:50.792Z,1005.31
2016-08-04T08:33:50.798Z,1005.34
2016-08-04T08:34:50.804Z,1005.33
2016-08-04T08:35:50.809Z,1005.31
2016-08-04T08:36:50.815Z,1005.33
2016-08-04T08:37:50.822Z,1005.29
2016-08-04T08:38:50.827Z,1005.26
2016-08-04T08:39:50.832Z,1005.3
2016-08-04T08:40:50.888Z,1005.28
2016-08-04T08:41:50.843Z,1005.29
2016-08-04T08:42:50.847Z,1005.29
2016-08-04T08:43:50.855Z,1005.32
2016-08-04T08:44:50.909Z,1005.34
2016-08-04T08:45:50.867Z,1005.38
2016-08-04T08:46:50.871Z,1005.32
2016-08-04T08:47:50.878Z,1005.34
2016-08-04T08:48:50.883Z,1005.32
2016-08-04T08:49:50.902Z,1005.4
2016-08-04T08:50:50.894Z,1005.38
2016-08-04T08:51:50.902Z,1005.37
2016-08-04T08:52:50.904Z,1005.36
2016-08-04T08:53:50.909Z,1005.35
2016-08-04T08:54:50.917Z,1005.35
2016-08-04T08:55:50.923Z,1005.36
2016-08-04T08:56:50.928Z,1005.42
2016-08-04T08:57:50.933Z,1005.42
2016-08-04T08:58:50.938Z,1005.51
2016-08-04T08:59:50.945Z,1005.42
2016-08-04T09:00:50.949Z,1005.44
2016-08-04T09:01:50.955Z,1005.48
2016-08-04T09:02:51.162Z,1005.45
2016-08-04T09:03:50.968Z,1005.44
2016-08-04T09:04:50.979Z,1005.48
2016-08-04T09:05:50.978Z,1005.44
2016-08-04T09:06:50.985Z,1005.46
2016-08-04T09:07:50.989Z,1005.42
2016-08-04T09:08:50.995Z,1005.41
2016-08-04T09:09:51.001Z,1005.45
2016-08-04T09:10:51.006Z,1005.46
2016-08-04T09:11:51.048Z,1005.46
2016-08-04T09:12:51.025Z,1005.43
2016-08-04T09:13:51.023Z,1005.46
2016-08-04T09:14:51.080Z,1005.45
2016-08-04T09:15:51.033Z,1005.5
2016-08-04T09:16:51.045Z,1005.49
2016-08-04T09:17:51.045Z,1005.43
2016-08-04T09:18:51.051Z,1005.46
2016-08-04T09:19:51.055Z,1005.44
2016-08-04T09:20:51.061Z,1005.42
2016-08-04T09:21:51.067Z,1005.45
2016-08-04T09:22:51.073Z,1005.41
2016-08-04T09:23:51.079Z,1005.38
2016-08-04T09:24:51.485Z,1005.38
2016-08-04T09:25:51.089Z,1005.42
2016-08-04T09:26:51.097Z,1005.41
2016-08-04T09:27:51.100Z,1005.36
2016-08-04T09:28:51.107Z,1005.41
2016-08-04T09:29:51.113Z,1005.4
2016-08-04T09:30:51.120Z,1005.45
2016-08-04T09:31:51.125Z,1005.49
2016-08-04T09:32:51.131Z,1005.47
2016-08-04T09:33:51.137Z,1005.43
2016-08-04T09:34:51.143Z,1005.39
2016-08-04T09:35:51.148Z,1005.32
2016-08-04T09:37:51.161Z,1005.38
2016-08-04T09:38:51.167Z,1005.43
2016-08-04T09:39:51.189Z,1005.45
2016-08-04T09:40:51.181Z,1005.46
2016-08-04T09:41:51.184Z,1005.49
2016-08-04T09:42:51.190Z,1005.5
2016-08-04T09:43:51.197Z,1005.52
2016-08-04T09:44:51.202Z,1005.53
2016-08-04T09:45:51.208Z,1005.5
2016-08-04T09:46:51.714Z,1005.53
2016-08-04T09:47:51.221Z,1005.51
2016-08-04T09:48:51.230Z,1005.53
2016-08-04T09:49:51.232Z,1005.53
2016-08-04T09:50:51.236Z,1005.6
2016-08-04T09:52:51.296Z,1005.54
2016-08-04T09:53:51.254Z,1005.49
2016-08-04T09:54:51.260Z,1005.53
2016-08-04T09:55:51.265Z,1005.54
2016-08-04T09:56:51.270Z,1005.56
2016-08-04T09:57:51.277Z,1005.54
2016-08-04T09:58:51.282Z,1005.53
2016-08-04T09:59:51.286Z,1005.53
2016-08-04T10:00:51.293Z,1005.53
2016-08-04T10:01:51.349Z,1005.55
2016-08-04T10:02:51.304Z,1005.51
2016-08-04T10:03:51.316Z,1005.58
2016-08-04T10:04:51.316Z,1005.58
2016-08-04T10:05:51.321Z,1005.56
2016-08-04T10:06:51.327Z,1005.54
2016-08-04T10:07:51.332Z,1005.51
2016-08-04T10:08:51.789Z,1005.53
2016-08-04T10:09:51.392Z,1005.54
2016-08-04T10:10:51.349Z,1005.49
2016-08-04T10:11:51.355Z,1005.5
2016-08-04T10:12:51.362Z,1005.47
2016-08-04T10:13:51.367Z,1005.53
2016-08-04T10:14:51.372Z,1005.5
2016-08-04T10:15:51.378Z,1005.5
2016-08-04T10:16:51.386Z,1005.53
2016-08-04T10:17:51.390Z,1005.59
2016-08-04T10:18:51.396Z,1005.59
2016-08-04T10:19:51.399Z,1005.62
2016-08-04T10:20:51.406Z,1005.63
2016-08-04T10:21:51.410Z,1005.64
2016-08-04T10:22:51.416Z,1005.61
2016-08-04T10:23:51.822Z,1005.6
2016-08-04T10:24:51.427Z,1005.58
2016-08-04T10:25:51.433Z,1005.58
2016-08-04T10:26:51.439Z,1005.53
2016-08-04T10:27:51.445Z,1005.54
2016-08-04T10:28:51.447Z,1005.52
2016-08-04T10:29:51.455Z,1005.55
2016-08-04T10:30:51.462Z,1005.54
2016-08-04T10:31:51.467Z,1005.6
2016-08-04T10:32:51.472Z,1005.56
2016-08-04T10:33:51.478Z,1005.58
2016-08-04T10:34:51.500Z,1005.57
2016-08-04T10:35:51.488Z,1005.52
2016-08-04T10:36:51.495Z,1005.54
2016-08-04T10:37:51.501Z,1005.57
2016-08-04T10:38:51.507Z,1005.54
2016-08-04T10:39:51.511Z,1005.6
2016-08-04T10:40:51.518Z,1005.56
2016-08-04T10:41:51.524Z,1005.57
2016-08-04T10:42:51.531Z,1005.57
2016-08-04T10:43:51.695Z,1005.6
2016-08-04T10:44:51.547Z,1005.6
2016-08-04T10:45:52.348Z,1005.67
2016-08-04T10:46:51.553Z,1005.64
2016-08-04T10:47:51.559Z,1005.72
2016-08-04T10:48:51.565Z,1005.71
2016-08-04T10:49:51.572Z,1005.7
2016-08-04T10:50:51.576Z,1005.69
2016-08-04T10:51:51.583Z,1005.68
2016-08-04T10:52:51.589Z,1005.65
2016-08-04T10:53:51.595Z,1005.69
2016-08-04T10:54:51.600Z,1005.69
2016-08-04T10:55:51.606Z,1005.75
2016-08-04T10:56:51.618Z,1005.64
2016-08-04T10:57:51.618Z,1005.67
2016-08-04T10:58:51.624Z,1005.6
2016-08-04T10:59:51.630Z,1005.63
2016-08-04T11:00:51.637Z,1005.68
2016-08-04T11:01:51.640Z,1005.61
2016-08-04T11:02:51.645Z,1005.65
2016-08-04T11:03:51.651Z,1005.6
2016-08-04T11:04:51.655Z,1005.61
2016-08-04T11:05:51.663Z,1005.55
2016-08-04T11:06:51.667Z,1005.6
2016-08-04T11:07:51.974Z,1005.59
2016-08-04T11:08:51.680Z,1005.54
2016-08-04T11:09:51.686Z,1005.52
2016-08-04T11:10:51.691Z,1005.54
2016-08-04T11:11:51.696Z,1005.57
2016-08-04T11:12:51.703Z,1005.6
2016-08-04T11:13:51.711Z,1005.57
2016-08-04T11:14:51.715Z,1005.58
2016-08-04T11:15:51.719Z,1005.59
2016-08-04T11:16:51.725Z,1005.63
2016-08-04T11:17:51.731Z,1005.62
2016-08-04T11:18:51.738Z,1005.6
2016-08-04T11:19:51.743Z,1005.63
2016-08-04T11:20:51.748Z,1005.72
2016-08-04T11:21:51.754Z,1005.64
2016-08-04T11:22:51.761Z,1005.66
2016-08-04T11:23:51.767Z,1005.72
2016-08-04T11:24:51.772Z,1005.63
2016-08-04T11:25:51.778Z,1005.62
2016-08-04T11:26:51.784Z,1005.66
2016-08-04T11:27:51.887Z,1005.58
2016-08-04T11:28:51.795Z,1005.7
2016-08-04T11:29:51.900Z,1005.72
2016-08-04T11:30:51.807Z,1005.73
2016-08-04T11:31:51.814Z,1005.72
2016-08-04T11:32:51.819Z,1005.69
2016-08-04T11:33:51.826Z,1005.66
2016-08-04T11:34:51.921Z,1005.65
2016-08-04T11:35:51.835Z,1005.71
2016-08-04T11:36:51.842Z,1005.68
2016-08-04T11:37:51.848Z,1005.74
2016-08-04T11:38:51.854Z,1005.72
2016-08-04T11:39:51.861Z,1005.74
2016-08-04T11:40:51.867Z,1005.69
2016-08-04T11:41:51.870Z,1005.72
2016-08-04T11:42:51.875Z,1005.67
2016-08-04T11:43:51.884Z,1005.66
2016-08-04T11:44:51.890Z,1005.61
2016-08-04T11:45:51.895Z,1005.64
2016-08-04T11:46:51.950Z,1005.68
2016-08-04T11:47:51.955Z,1005.67
2016-08-04T11:48:51.913Z,1005.7
2016-08-04T11:49:51.920Z,1005.68
2016-08-04T11:50:51.926Z,1005.73
2016-08-04T11:51:51.932Z,1005.73
2016-08-04T11:52:52.022Z,1005.7
2016-08-04T11:53:51.945Z,1005.7
2016-08-04T11:54:51.950Z,1005.65
2016-08-04T11:55:51.956Z,1005.74
2016-08-04T11:56:51.963Z,1005.7
2016-08-04T11:57:51.966Z,1005.72
2016-08-04T11:58:51.975Z,1005.71
2016-08-04T11:59:51.979Z,1005.68
2016-08-04T12:00:51.985Z,1005.71
2016-08-04T12:01:51.991Z,1005.66
2016-08-04T12:02:51.996Z,1005.7
2016-08-04T12:03:52.001Z,1005.69
2016-08-04T12:04:52.009Z,1005.76
2016-08-04T12:05:52.014Z,1005.78
2016-08-04T12:06:52.198Z,1005.75
2016-08-04T12:07:52.025Z,1005.77
2016-08-04T12:08:52.031Z,1005.77
2016-08-04T12:09:52.037Z,1005.76
2016-08-04T12:10:52.040Z,1005.76
2016-08-04T12:11:52.050Z,1005.77
2016-08-04T12:12:52.053Z,1005.78
2016-08-04T12:13:52.059Z,1005.83
2016-08-04T12:14:52.113Z,1005.8
2016-08-04T12:15:53.121Z,1005.74
2016-08-04T12:16:52.076Z,1005.74
2016-08-04T12:17:52.082Z,1005.77